aviador You're here:

KJSO Decoded Metar

JACKSONVILLE in TX, USA
Report Time2018-01-17 01:15:00
UTC Time2018-01-17 01:20:57
Flight Rules vfr VFR
Wind340° at 05 kt
W.Decomp.*RWY 32: 4.8 kt HW 1.3 kt RCW
W.Rank340° ranks 25
Current wind is below 340° avg. (5.2)
Visibility9999 m
Phenomena:N/A
Clouds:Broken 110 Hf
Expected CloudBase > 2,400 ft AGL from Temp-Dew spread
Ceiling11,000 ft
Temp-6°C (ISA -20)
Dew Point-12°C (63% RH)
AAT-11.0°C
QNH1039 hPa
Density Alt-2,602 ft
Elevation676 ft
Report Wrong Elevation
Raw Report
KJSO 170115Z AUTO 34005KT 10SM BKN110 M06/M12 A3069 RMK AO2
T10611123=

Extra information for KJSO:More info

Metar Taf Metar & Taf Last 4 Metars F.Rules Stats Wind Profile Meteogram Temp Stats Airport Information Weather charts Add Link Nearby VenuesMetar ALERT Operation Metar Decoded Social comments

AIRNAV info for KJSO